Terminal Aerodrome Forecast
Issued by NWS

Home | Current Version | Previous Version | Text Only | Print | Product List | Glossary On
Versions: 1 2 3 4 5 6 7 8 9 10 11 12 13
652
FTUS46 KSEW 301720
TAFPAE
TAF
KPAE 301720Z 3018/3118 25009KT P6SM SCT050
     FM301900 25007KT P6SM SCT060
     FM310100 01005KT P6SM FEW060
     FM310700 VRB04KT P6SM BKN060
     FM311000 17006KT P6SM OVC015
     FM311600 18008KT P6SM SCT020 BKN040=

USA.gov is the U.S. government's official web portal to all federal, state and local government web resources and services.